Meteo Giornale » Osservazioni meteo Italia » Rimini

ore: 07:45 - Osservazioni Meteo Rimini
Lat. 44° 2' N Lon. 12° 37' E Alt. 12 metri s.l.m.

sereno Europe/Rome

21 °C

Sereno

Temp. 24 Ore

18 °C

28 °C

Nord

1.8 Km/h

Dew point 16 °C

Umidità 73 %

Visibilità  10 Km

Il sole sorge alle ore 05:51

Il sole tramonta alle ore 20:40

Data e Ora Cielo e Fenomeni T °C DP °C Um. % Pres. hPa Vis. km Vento km/h
Oggi h: 07:45 sereno Sereno 21 16 73 1009 10 N 1.8
Oggi h: 07:15 sereno Sereno 19 16 82 1008 10 N 3.7
Oggi h: 06:45 sereno Sereno 18 15 82 1008 10 N 1.8
Oggi h: 05:45 sereno Sereno 18 15 82 1007 10 S 7.4
Oggi h: 05:15 sereno Sereno 19 16 82 1007 10 N 0
Oggi h: 04:45 sereno Sereno 19 15 77 1007 10 N 1.8
Oggi h: 04:15 sereno Sereno 19 15 77 1007 10 N 3.7
Oggi h: 03:45 sereno Sereno 19 15 77 1007 10 N 5.5
Oggi h: 03:15 sereno Sereno 20 16 77 1007 10 N 5.5
Oggi h: 02:45 sereno Sereno 21 16 73 1007 10 N 1.8
Oggi h: 02:15 sereno Sereno 21 16 73 1007 10 S/SO 7.4
Oggi h: 01:45 sereno Sereno 22 16 68 1007 10 SO 7.4
Oggi h: 01:15 sereno Sereno 23 15 60 1007 10 SO 7.4
Oggi h: 00:45 sereno Sereno 23 16 64 1007 10 SO 9.3
Oggi h: 00:15 sereno Sereno 24 16 60 1006 10 O/SO 11.1
Ieri h: 23:45 sereno Sereno 24 16 60 1006 10 O/SO 11.1
Ieri h: 23:15 sereno Sereno 24 15 57 1006 10 O/SO 11.1
Ieri h: 22:45 sereno Sereno 24 15 57 1006 10 O/SO 11.1
Ieri h: 22:15 sereno Sereno 24 15 57 1006 10 O/SO 11.1
Ieri h: 21:45 sereno Sereno 24 15 57 1005 10 O/SO 7.4
Ieri h: 21:15 sereno Sereno 24 15 57 1005 10 N 3.7
Ieri h: 20:45 sereno Sereno 24 17 64 1005 10 N 5.5
Ieri h: 20:15 poco_nuvoloso Poco Nuvoloso 25 17 61 1005 10 N 3.7
Ieri h: 19:45 poco_nuvoloso Poco Nuvoloso 25 17 61 1004 10 S/SO 9.3
Ieri h: 19:15 poco_nuvoloso Poco Nuvoloso 26 17 57 1004 10 S 11.1
Ieri h: 18:45 poco_nuvoloso Poco Nuvoloso 26 15 50 1004 10 S 13
Ieri h: 18:15 poco_nuvoloso Poco Nuvoloso 27 15 47 1005 10 S 20.3
Ieri h: 17:45 poco_nuvoloso Poco Nuvoloso 28 18 54 1005 10 S 14.8
Ieri h: 17:15 poco_nuvoloso Poco Nuvoloso 28 17 51 1004 10 E 14.8
Ieri h: 16:45 poco_nuvoloso Poco Nuvoloso 28 18 54 1004 10 E 11.1
Ieri h: 16:15 poco_nuvoloso Poco Nuvoloso 27 18 57 1005 10 E 11.1
Ieri h: 15:45 poco_nuvoloso Poco Nuvoloso 28 19 58 1005 10 E/NE 14.8
Ieri h: 15:15 poco_nuvoloso Poco Nuvoloso 28 19 58 1005 10 NE 11.1
Ieri h: 14:45 poco_nuvoloso Poco Nuvoloso 28 19 58 1004 10 NE 11.1
Ieri h: 13:45 sereno Sereno 28 18 54 1004 10 N 105.5
Ieri h: 13:15 sereno Sereno 28 18 54 1005 10 N/NO 18.5
Ieri h: 12:45 sereno Sereno 28 17 51 1005 10 N 22.2
Ieri h: 12:15 sereno Sereno 28 16 48 1005 10 N/NO 16.7
Ieri h: 11:45 sereno Sereno 28 12 37 1005 10 O/NO 25.9
Ieri h: 11:15 sereno Sereno 28 11 34 1005 10 O 22.2
Ieri h: 10:45 sereno Sereno 26 13 44 1005 10 O 18.5
Ieri h: 10:15 sereno Sereno 25 15 53 1005 10 O 9.3
Ieri h: 09:45 sereno Sereno 24 16 60 1005 10 O/NO 11.1
Ieri h: 09:15 sereno Sereno 23 15 60 1005 10 N 5.5
Ieri h: 08:45 sereno Sereno 22 16 68 1005 10 N 3.7